Time;durP1;ratioP1;P1;durP2;ratioP2;P2;SDS_P1;SDS_P2;PMS_P1;PMS_P2;Temp;Humidity;BMP_temperature;BMP_pressure;BME280_temperature;BME280_humidity;BME280_pressure;Samples;Min_cycle;Max_cycle;Signal;HPM_P1;HPM_P2
2022/01/25 05:01:28;;;;;;;29.10;14.40;;;0.00;99.90;;;;;;5501771;23;21071;-76
2022/01/25 05:04:01;;;;;;;21.90;13.80;;;0.10;99.90;;;;;;4955784;28;20452;-76
2022/01/25 05:06:30;;;;;;;25.37;13.47;;;0.10;99.90;;;;;;4957753;29;20460;-76
2022/01/25 05:09:06;;;;;;;21.97;13.43;;;0.10;99.90;;;;;;4957315;29;20551;-76
2022/01/25 05:11:35;;;;;;;23.83;12.83;;;0.00;99.90;;;;;;4957279;28;20469;-76
2022/01/25 05:16:58;;;;;;;26.97;14.47;;;0.00;99.90;;;;;;4937680;28;20464;-76
2022/01/25 05:22:07;;;;;;;24.40;15.10;;;0.00;99.90;;;;;;4924886;29;20543;-76
2022/01/25 05:24:38;;;;;;;22.63;13.97;;;0.00;99.90;;;;;;4957442;29;20464;-76
2022/01/25 05:27:07;;;;;;;23.97;14.83;;;-0.10;99.90;;;;;;4957319;29;20463;-76
2022/01/25 05:29:34;;;;;;;27.57;13.60;;;0.00;99.90;;;;;;4956768;29;20544;-76
2022/01/25 05:32:03;;;;;;;23.97;14.73;;;-0.10;99.90;;;;;;4956936;28;20560;-76
2022/01/25 05:34:31;;;;;;;25.37;14.80;;;-0.10;99.90;;;;;;4956865;29;20527;-76
2022/01/25 05:36:57;;;;;;;21.40;13.53;;;-0.10;99.90;;;;;;4957122;29;20452;-76
2022/01/25 05:39:28;;;;;;;22.70;13.47;;;-0.10;99.90;;;;;;4956985;29;20456;-76
2022/01/25 05:41:57;;;;;;;25.63;14.80;;;-0.10;99.90;;;;;;4957146;28;20496;-76
2022/01/25 05:44:38;;;;;;;26.00;13.87;;;-0.20;99.90;;;;;;4957013;29;20449;-68
2022/01/25 05:47:08;;;;;;;27.80;14.43;;;-0.10;99.90;;;;;;4957468;29;20433;-76
2022/01/25 05:49:36;;;;;;;23.50;14.73;;;-0.10;99.90;;;;;;4957091;29;20464;-76
2022/01/25 05:52:06;;;;;;;21.10;14.07;;;-0.20;99.90;;;;;;4956847;28;20888;-76
2022/01/25 05:54:33;;;;;;;26.17;14.63;;;-0.20;99.90;;;;;;4955652;29;20969;-76
2022/01/25 05:56:59;;;;;;;23.60;13.57;;;-0.20;99.90;;;;;;4955982;29;20459;-76
2022/01/25 05:59:27;;;;;;;27.23;16.40;;;-0.20;99.90;;;;;;4955153;29;20891;-78
2022/01/25 06:01:53;;;;;;;26.80;15.63;;;-0.30;99.90;;;;;;4955787;28;20522;-77
2022/01/25 06:04:23;;;;;;;24.43;16.70;;;-0.40;99.90;;;;;;4956010;29;21050;-77
2022/01/25 06:06:50;;;;;;;29.60;17.10;;;-0.30;99.90;;;;;;4955214;29;20456;-77
2022/01/25 06:09:17;;;;;;;23.37;14.30;;;-0.40;99.90;;;;;;4954817;29;20448;-77
2022/01/25 06:11:44;;;;;;;26.70;15.30;;;-0.30;99.90;;;;;;4955582;28;20494;-76
2022/01/25 06:14:11;;;;;;;28.50;15.23;;;-0.30;99.90;;;;;;4956067;28;20488;-76
2022/01/25 06:16:38;;;;;;;31.57;18.53;;;-0.40;99.90;;;;;;4955714;29;20981;-76
2022/01/25 06:19:06;;;;;;;25.43;17.23;;;-0.40;99.90;;;;;;4956408;29;20448;-76
2022/01/25 06:21:34;;;;;;;24.30;16.43;;;-0.30;99.90;;;;;;4956297;28;20496;-77
2022/01/25 06:24:01;;;;;;;25.83;16.77;;;-0.30;99.90;;;;;;4956104;29;20491;-76
2022/01/25 06:26:28;;;;;;;29.30;17.23;;;-0.30;99.90;;;;;;4956337;29;20463;-77
2022/01/25 06:28:55;;;;;;;31.70;16.07;;;-0.30;99.90;;;;;;4955869;29;20465;-77
2022/01/25 06:31:22;;;;;;;26.07;15.40;;;-0.30;99.90;;;;;;4956095;28;20484;-77
2022/01/25 06:33:49;;;;;;;30.10;16.30;;;-0.30;99.90;;;;;;4955045;29;20517;-77
2022/01/25 06:36:18;;;;;;;27.30;15.20;;;-0.30;99.90;;;;;;4956398;29;20873;-77
2022/01/25 06:38:46;;;;;;;28.40;16.17;;;-0.30;99.90;;;;;;4955798;29;20519;-77
2022/01/25 06:41:14;;;;;;;27.10;15.30;;;-0.30;99.90;;;;;;4955693;28;20503;-76
2022/01/25 06:43:41;;;;;;;26.87;15.10;;;-0.30;99.90;;;;;;4955192;29;20547;-76
2022/01/25 06:46:08;;;;;;;32.17;15.93;;;-0.20;99.90;;;;;;4954650;29;20969;-77
2022/01/25 06:48:35;;;;;;;25.60;15.23;;;-0.30;99.90;;;;;;4954448;29;20455;-77
2022/01/25 06:51:02;;;;;;;24.90;14.37;;;-0.30;99.90;;;;;;4954299;28;20477;-76
2022/01/25 06:53:30;;;;;;;29.57;16.70;;;-0.30;99.90;;;;;;4954713;29;20548;-76
2022/01/25 06:55:58;;;;;;;27.77;16.50;;;-0.40;99.90;;;;;;4954892;29;20881;-76
2022/01/25 06:58:25;;;;;;;26.83;15.13;;;-0.40;99.90;;;;;;4954993;29;20488;-77
2022/01/25 07:00:52;;;;;;;30.87;15.73;;;-0.40;99.90;;;;;;4954272;28;20525;-76
2022/01/25 07:03:19;;;;;;;23.70;14.30;;;-0.40;99.90;;;;;;4954840;29;20491;-77
2022/01/25 07:05:46;;;;;;;25.47;14.73;;;-0.40;99.90;;;;;;4954581;29;20952;-76
2022/01/25 07:08:13;;;;;;;30.63;16.03;;;-0.40;99.90;;;;;;4954241;29;20473;-67
2022/01/25 07:10:39;;;;;;;27.50;14.57;;;-0.50;99.90;;;;;;4954671;28;20476;-67
2022/01/25 07:13:08;;;;;;;25.63;15.03;;;-0.60;99.90;;;;;;4955574;29;20544;-67
2022/01/25 07:15:35;;;;;;;28.60;16.73;;;-0.50;99.90;;;;;;4955310;29;20954;-75
2022/01/25 07:18:02;;;;;;;34.20;17.87;;;-0.50;99.90;;;;;;4955335;29;20449;-75
2022/01/25 07:20:29;;;;;;;33.20;18.40;;;-0.50;99.90;;;;;;4955214;28;20883;-75
2022/01/25 07:22:56;;;;;;;40.60;18.00;;;-0.50;99.90;;;;;;4955125;29;20494;-75
2022/01/25 07:25:25;;;;;;;40.37;19.77;;;-0.50;99.90;;;;;;4955151;29;20863;-75
2022/01/25 07:27:52;;;;;;;36.63;18.67;;;-0.50;99.90;;;;;;4955312;28;20457;-75
2022/01/25 07:30:20;;;;;;;28.90;15.40;;;-0.50;99.90;;;;;;4939157;29;20509;-75
2022/01/25 07:32:47;;;;;;;35.70;18.43;;;-0.50;99.90;;;;;;4944019;29;20531;-75
2022/01/25 07:35:14;;;;;;;33.07;17.93;;;-0.50;99.90;;;;;;4952314;29;20528;-75
2022/01/25 07:37:41;;;;;;;31.67;17.10;;;-0.50;99.90;;;;;;4935576;29;20537;-75
2022/01/25 07:40:10;;;;;;;29.20;16.60;;;-0.50;99.90;;;;;;4935717;29;20509;-75
2022/01/25 07:42:39;;;;;;;31.83;15.93;;;-0.50;99.90;;;;;;4943836;29;21018;-75
2022/01/25 07:45:10;;;;;;;26.90;15.03;;;-0.50;99.90;;;;;;4955210;29;20461;-75
2022/01/25 07:47:39;;;;;;;25.83;15.30;;;-0.60;99.90;;;;;;4954853;29;20464;-75
2022/01/25 07:50:07;;;;;;;26.57;16.33;;;-0.60;99.90;;;;;;4954964;29;20488;-75
2022/01/25 07:52:34;;;;;;;35.47;16.90;;;-0.60;99.90;;;;;;4954998;28;20556;-73
2022/01/25 07:55:01;;;;;;;31.07;15.20;;;-0.60;99.90;;;;;;4954654;29;20448;-73
2022/01/25 07:57:28;;;;;;;43.23;18.33;;;-0.60;99.90;;;;;;4954686;29;20540;-73
2022/01/25 07:59:55;;;;;;;33.73;16.80;;;-0.60;99.90;;;;;;4954407;29;20547;-73
2022/01/25 08:02:22;;;;;;;36.20;17.50;;;-0.60;99.90;;;;;;4945968;28;20583;-73
2022/01/25 08:04:51;;;;;;;32.20;18.70;;;-0.50;99.90;;;;;;4935458;29;20785;-74
2022/01/25 08:07:18;;;;;;;35.73;17.60;;;-0.60;99.90;;;;;;4935617;29;20489;-74
2022/01/25 08:09:45;;;;;;;33.63;16.87;;;-0.60;99.90;;;;;;4935024;29;20457;-74
2022/01/25 08:12:12;;;;;;;31.20;17.20;;;-0.60;99.90;;;;;;4935342;29;20553;-74
2022/01/25 08:14:41;;;;;;;35.30;18.53;;;-0.50;99.90;;;;;;4935217;29;20505;-74
2022/01/25 08:17:08;;;;;;;37.80;19.20;;;-0.50;99.90;;;;;;4947526;29;20532;-74
2022/01/25 08:19:35;;;;;;;30.23;18.10;;;-0.40;99.90;;;;;;4948793;29;20449;-74
2022/01/25 08:22:04;;;;;;;34.30;18.70;;;-0.40;99.90;;;;;;4948934;29;20497;-74
2022/01/25 08:24:31;;;;;;;35.80;19.40;;;-0.40;99.90;;;;;;4954232;29;20459;-73
2022/01/25 08:26:58;;;;;;;33.73;17.23;;;-0.40;99.90;;;;;;4954093;29;20488;-73
2022/01/25 08:29:24;;;;;;;35.10;18.83;;;-0.40;99.90;;;;;;4953902;29;20540;-74
2022/01/25 08:31:51;;;;;;;32.47;19.00;;;-0.40;99.90;;;;;;4954082;28;20481;-74
2022/01/25 08:34:18;;;;;;;36.10;18.80;;;-0.30;99.90;;;;;;4954114;29;20459;-73
2022/01/25 08:36:45;;;;;;;40.27;20.60;;;-0.30;99.90;;;;;;4954090;29;20480;-74
2022/01/25 08:39:14;;;;;;;37.03;20.40;;;-0.20;99.90;;;;;;4953135;28;20548;-73
2022/01/25 08:41:41;;;;;;;37.47;18.93;;;-0.20;99.90;;;;;;4954064;28;20513;-74
2022/01/25 08:44:08;;;;;;;40.57;20.30;;;-0.10;99.90;;;;;;4953866;29;20532;-74
2022/01/25 08:46:35;;;;;;;39.07;21.00;;;-0.10;99.90;;;;;;4954053;29;20829;-74
2022/01/25 08:49:02;;;;;;;42.00;19.90;;;0.00;99.90;;;;;;4953975;29;20460;-73
2022/01/25 08:51:29;;;;;;;45.37;23.00;;;0.10;99.90;;;;;;4953682;28;20564;-74
2022/01/25 08:53:56;;;;;;;41.70;22.03;;;0.10;99.90;;;;;;4953843;29;20457;-74
2022/01/25 08:56:24;;;;;;;33.50;19.90;;;0.20;99.90;;;;;;4953683;29;20552;-74
2022/01/25 08:58:51;;;;;;;40.13;21.70;;;0.20;99.90;;;;;;4953448;29;20463;-74
2022/01/25 09:01:18;;;;;;;40.93;21.40;;;0.30;99.90;;;;;;4953622;28;20515;-73
2022/01/25 09:03:45;;;;;;;44.47;23.60;;;0.40;99.90;;;;;;4952309;29;20496;-73
2022/01/25 09:06:12;;;;;;;42.30;20.23;;;0.50;99.90;;;;;;4952931;29;20460;-73
2022/01/25 09:08:39;;;;;;;35.20;20.57;;;0.60;99.90;;;;;;4952838;29;20984;-73
2022/01/25 09:11:07;;;;;;;37.07;21.10;;;0.70;99.90;;;;;;4952315;28;20484;-73
2022/01/25 09:13:36;;;;;;;34.83;20.70;;;0.80;99.90;;;;;;4953683;29;20457;-73
2022/01/25 09:16:03;;;;;;;34.97;20.53;;;0.90;99.90;;;;;;4953520;29;20449;-74
2022/01/25 09:18:30;;;;;;;33.20;19.87;;;0.90;99.90;;;;;;4953690;29;20456;-74
2022/01/25 09:20:57;;;;;;;42.60;22.20;;;1.00;99.90;;;;;;4952666;29;20517;-73
2022/01/25 09:23:26;;;;;;;46.50;22.83;;;1.00;99.90;;;;;;4952665;29;20531;-74
2022/01/25 09:25:55;;;;;;;47.50;23.93;;;1.00;99.90;;;;;;4952610;29;20464;-73
2022/01/25 09:28:22;;;;;;;43.67;22.50;;;1.20;99.90;;;;;;4952553;29;20463;-73
2022/01/25 09:30:50;;;;;;;38.33;19.83;;;1.20;99.90;;;;;;4952319;29;21057;-73
2022/01/25 09:33:17;;;;;;;36.73;20.37;;;1.30;99.90;;;;;;4952718;29;20445;-73
2022/01/25 09:35:44;;;;;;;44.13;22.33;;;1.40;99.90;;;;;;4952533;29;20453;-73
2022/01/25 09:38:11;;;;;;;43.77;23.40;;;1.60;99.90;;;;;;4952548;29;21020;-73
2022/01/25 09:40:38;;;;;;;37.83;21.60;;;1.80;99.90;;;;;;4952432;29;20567;-73
2022/01/25 09:43:06;;;;;;;46.20;24.57;;;2.00;99.90;;;;;;4952536;29;20568;-73
2022/01/25 09:45:34;;;;;;;44.70;22.80;;;2.20;99.90;;;;;;4953059;29;20453;-83
2022/01/25 09:48:04;;;;;;;46.50;21.77;;;2.40;99.90;;;;;;4947581;29;20493;-82
2022/01/25 09:50:31;;;;;;;40.13;21.00;;;2.50;99.90;;;;;;4936225;29;20545;-83
2022/01/25 09:53:00;;;;;;;42.00;21.33;;;2.70;99.90;;;;;;4938060;29;20528;-82
2022/01/25 09:55:30;;;;;;;39.50;19.93;;;2.80;99.90;;;;;;4937696;29;20461;-82
2022/01/25 09:57:57;;;;;;;36.53;19.93;;;2.80;99.90;;;;;;4937923;29;21055;-81
2022/01/25 10:00:26;;;;;;;34.63;20.10;;;2.80;99.90;;;;;;4937680;29;20548;-83
2022/01/25 10:03:01;;;;;;;34.00;20.80;;;2.90;99.90;;;;;;4937885;29;20533;-83
2022/01/25 10:05:35;;;;;;;34.77;20.63;;;2.90;99.90;;;;;;4938304;29;20488;-83
2022/01/25 10:08:04;;;;;;;35.50;19.50;;;2.90;99.90;;;;;;4936857;29;20446;-75
2022/01/25 10:10:32;;;;;;;36.73;19.80;;;2.90;99.90;;;;;;4936256;29;20454;-74
2022/01/25 10:13:11;;;;;;;34.33;19.73;;;2.90;99.90;;;;;;4936466;29;20460;-74
2022/01/25 10:15:38;;;;;;;31.13;18.40;;;2.90;99.90;;;;;;4936663;29;20469;-75
2022/01/25 10:18:05;;;;;;;37.20;18.77;;;3.00;99.90;;;;;;4948283;29;20451;-75
2022/01/25 10:20:40;;;;;;;32.90;18.77;;;3.00;99.90;;;;;;4954970;29;21023;-75
2022/01/25 10:23:12;;;;;;;30.70;17.50;;;3.10;99.90;;;;;;4955457;29;20486;-75
2022/01/25 10:25:41;;;;;;;33.23;19.33;;;3.20;99.90;;;;;;4955672;29;20445;-75
2022/01/25 10:28:13;;;;;;;31.60;20.30;;;3.30;99.90;;;;;;4955199;29;20544;-75
2022/01/25 10:30:47;;;;;;;32.57;19.20;;;3.40;99.90;;;;;;4954838;29;21002;-75
2022/01/25 10:33:24;;;;;;;36.53;19.13;;;3.40;99.90;;;;;;4955254;29;20476;-75
2022/01/25 10:35:52;;;;;;;34.93;19.30;;;3.40;99.90;;;;;;4955245;29;20464;-75
2022/01/25 10:38:24;;;;;;;30.47;20.10;;;3.50;99.90;;;;;;4955088;29;20503;-76
2022/01/25 10:40:57;;;;;;;34.47;19.90;;;3.70;99.90;;;;;;4954645;29;20540;-76
2022/01/25 10:43:26;;;;;;;35.80;21.63;;;3.80;99.90;;;;;;4943759;29;20581;-75
2022/01/25 10:46:24;;;;;;;29.53;18.90;;;3.90;99.90;;;;;;4944052;29;20456;-75
2022/01/25 10:48:53;;;;;;;28.60;18.13;;;4.00;99.90;;;;;;4901082;29;20962;-75
2022/01/25 10:51:25;;;;;;;30.70;19.40;;;4.20;99.90;;;;;;4944051;29;21297;-75
2022/01/25 10:54:05;;;;;;;33.13;20.77;;;4.30;99.90;;;;;;4943521;29;20438;-75
2022/01/25 10:56:38;;;;;;;32.30;18.57;;;4.40;99.90;;;;;;4936012;29;20497;-75
2022/01/25 10:59:08;;;;;;;34.20;20.73;;;4.40;99.90;;;;;;4936439;29;20453;-75
2022/01/25 11:01:37;;;;;;;35.07;19.73;;;4.40;99.90;;;;;;4934874;29;20568;-75
2022/01/25 11:04:06;;;;;;;34.23;19.57;;;4.50;99.90;;;;;;4937769;29;20496;-75
2022/01/25 11:06:35;;;;;;;33.90;20.57;;;4.50;99.90;;;;;;4948989;29;20984;-75
2022/01/25 11:09:05;;;;;;;34.07;19.80;;;4.60;99.90;;;;;;4945882;29;20938;-75
2022/01/25 11:11:37;;;;;;;32.60;19.57;;;4.70;99.90;;;;;;4941336;29;20855;-75
2022/01/25 11:16:48;;;;;;;34.23;20.33;;;5.10;99.90;;;;;;4935052;29;20454;-76
2022/01/25 11:19:16;;;;;;;33.00;21.92;;;5.20;99.90;;;;;;4934739;29;20455;-76
2022/01/25 11:21:45;;;;;;;32.60;19.90;;;5.40;99.90;;;;;;4936048;29;20324;-76
2022/01/25 11:24:13;;;;;;;29.87;19.20;;;5.60;99.90;;;;;;4942259;29;20577;-76
2022/01/25 11:26:43;;;;;;;33.57;20.20;;;5.60;99.90;;;;;;4954809;29;20449;-76
2022/01/25 11:29:10;;;;;;;32.17;19.40;;;5.50;99.90;;;;;;4955113;29;20460;-76
2022/01/25 11:31:40;;;;;;;32.60;19.93;;;5.50;99.90;;;;;;4955045;29;20552;-76
2022/01/25 11:34:11;;;;;;;30.57;19.13;;;5.40;99.90;;;;;;4951882;29;20938;-76
2022/01/25 11:36:46;;;;;;;31.60;19.00;;;5.50;99.90;;;;;;4936660;29;20561;-76
2022/01/25 11:39:16;;;;;;;29.67;19.03;;;5.60;99.90;;;;;;4935406;29;20449;-76
2022/01/25 11:41:43;;;;;;;31.23;18.90;;;5.60;99.90;;;;;;4935865;29;20580;-76
2022/01/25 11:44:13;;;;;;;34.50;19.23;;;5.70;99.90;;;;;;4935643;29;21055;-76
2022/01/25 11:46:42;;;;;;;29.60;18.30;;;5.70;99.90;;;;;;4935847;29;20492;-76
2022/01/25 11:49:14;;;;;;;30.37;19.23;;;5.80;99.90;;;;;;4935186;29;20525;-76
2022/01/25 11:51:42;;;;;;;33.50;19.43;;;5.90;99.90;;;;;;4935266;29;20481;-76
2022/01/25 11:54:10;;;;;;;30.30;18.60;;;5.90;99.90;;;;;;4935713;29;20452;-76
2022/01/25 11:56:39;;;;;;;31.93;19.40;;;6.10;99.90;;;;;;4935405;29;20560;-76
2022/01/25 11:59:06;;;;;;;30.00;18.60;;;6.10;99.90;;;;;;4935111;29;20458;-76
2022/01/25 12:01:35;;;;;;;31.90;19.30;;;6.00;99.90;;;;;;4934767;29;20513;-76
2022/01/25 12:04:05;;;;;;;26.47;18.40;;;6.10;99.90;;;;;;4934160;29;20877;-76
2022/01/25 12:06:38;;;;;;;27.37;18.23;;;6.20;99.90;;;;;;4934452;29;20557;-76
2022/01/25 12:09:14;;;;;;;27.80;18.73;;;6.30;99.90;;;;;;4934011;29;20446;-76
2022/01/25 12:11:46;;;;;;;31.60;19.93;;;6.50;99.90;;;;;;4934569;29;20477;-77
2022/01/25 12:14:43;;;;;;;34.57;20.20;;;6.60;99.90;;;;;;4933326;29;20456;-76
2022/01/25 12:17:12;;;;;;;33.63;20.77;;;6.70;99.90;;;;;;4925734;29;20469;-76
2022/01/25 12:19:44;;;;;;;32.60;19.53;;;6.90;99.90;;;;;;4933890;29;20513;-76
2022/01/25 12:22:15;;;;;;;31.80;20.60;;;7.00;99.90;;;;;;4933884;29;20561;-76
2022/01/25 12:25:02;;;;;;;31.97;20.17;;;7.00;99.90;;;;;;4933808;29;20504;-76
2022/01/25 12:27:41;;;;;;;33.13;20.37;;;6.90;99.90;;;;;;4934174;29;20485;-76
2022/01/25 12:30:12;;;;;;;33.40;21.03;;;7.10;99.90;;;;;;4933933;29;20457;-76
2022/01/25 12:32:51;;;;;;;37.07;21.90;;;7.20;99.90;;;;;;4934121;29;20549;-76
2022/01/25 12:35:19;;;;;;;35.90;22.97;;;7.30;99.90;;;;;;4933745;29;20453;-76
2022/01/25 12:37:57;;;;;;;34.97;21.47;;;7.30;99.90;;;;;;4934130;29;20887;-77
2022/01/25 12:40:49;;;;;;;35.33;22.57;;;7.30;99.90;;;;;;4933651;29;20465;-76
2022/01/25 12:43:20;;;;;;;32.90;20.70;;;7.20;99.90;;;;;;4934782;29;20527;-76
2022/01/25 12:45:53;;;;;;;32.00;20.50;;;7.20;99.90;;;;;;4934595;29;20489;-76
2022/01/25 12:48:24;;;;;;;36.63;23.17;;;7.30;99.90;;;;;;4934708;29;20836;-76
2022/01/25 12:50:54;;;;;;;38.27;22.10;;;7.40;99.90;;;;;;4934533;29;20548;-76
2022/01/25 12:53:24;;;;;;;33.50;20.87;;;7.40;99.90;;;;;;4934568;29;20500;-76
2022/01/25 12:55:54;;;;;;;38.87;23.90;;;7.40;99.90;;;;;;4934562;29;20481;-76
2022/01/25 12:58:25;;;;;;;31.93;21.10;;;7.40;99.90;;;;;;4934438;29;20489;-76
2022/01/25 13:00:54;;;;;;;33.47;23.23;;;7.40;99.90;;;;;;4934612;29;20481;-76
2022/01/25 13:03:29;;;;;;;39.63;23.67;;;7.50;99.90;;;;;;4934728;29;20583;-76
2022/01/25 13:05:59;;;;;;;40.90;25.10;;;7.50;99.90;;;;;;4934608;29;20470;-77
2022/01/25 13:08:33;;;;;;;41.40;24.20;;;7.40;99.90;;;;;;4934578;29;20548;-76
2022/01/25 13:11:25;;;;;;;36.43;23.10;;;7.40;99.90;;;;;;4934124;29;21056;-76
2022/01/25 13:16:43;;;;;;;37.57;22.77;;;7.40;99.90;;;;;;4930465;29;20479;-77
2022/01/25 13:19:11;;;;;;;41.17;24.70;;;7.30;99.90;;;;;;4934164;29;20470;-71
2022/01/25 13:21:40;;;;;;;47.43;25.70;;;7.30;99.90;;;;;;4934630;29;20486;-71
2022/01/25 13:24:16;;;;;;;39.93;24.90;;;7.30;99.90;;;;;;4934532;29;20592;-71
2022/01/25 13:26:51;;;;;;;40.80;23.97;;;7.20;99.90;;;;;;4938298;29;20456;-71
2022/01/25 13:32:17;;;;;;;51.10;25.83;;;7.20;99.90;;;;;;4938095;29;20973;-71
2022/01/25 13:34:44;;;;;;;44.87;25.73;;;6.90;99.90;;;;;;4937942;29;20811;-76
2022/01/25 13:37:22;;;;;;;44.93;27.30;;;6.70;99.90;;;;;;4938146;29;20544;-76
2022/01/25 13:39:58;;;;;;;45.63;26.60;;;6.60;99.90;;;;;;4937548;29;20452;-76
2022/01/25 13:42:32;;;;;;;56.27;28.20;;;6.60;99.90;;;;;;4938664;29;20494;-77
2022/01/25 13:48:08;;;;;;;54.00;30.40;;;6.60;99.90;;;;;;4938031;29;20465;-76
2022/01/25 13:50:36;;;;;;;46.57;27.43;;;6.50;99.90;;;;;;4937428;29;20469;-76
2022/01/25 13:53:04;;;;;;;44.70;27.03;;;6.60;99.90;;;;;;4937702;29;21022;-76
2022/01/25 13:55:32;;;;;;;54.10;28.97;;;6.40;99.90;;;;;;4937516;29;20541;-76
2022/01/25 13:57:59;;;;;;;57.43;30.63;;;6.20;99.90;;;;;;4937613;29;20492;-76
2022/01/25 14:00:28;;;;;;;59.27;31.30;;;6.00;99.90;;;;;;4937141;29;20450;-77
2022/01/25 14:02:57;;;;;;;55.30;29.93;;;5.80;99.90;;;;;;4937599;29;20561;-77
2022/01/25 14:05:25;;;;;;;59.77;31.60;;;5.90;99.90;;;;;;4937797;29;20588;-76
2022/01/25 14:07:54;;;;;;;61.30;32.17;;;5.80;99.90;;;;;;4937359;29;20485;-76
2022/01/25 14:10:28;;;;;;;63.00;31.13;;;5.60;99.90;;;;;;4937163;29;20481;-78
2022/01/25 14:24:05;;;;;;;57.60;29.60;;;4.50;99.90;;;;;;4937112;29;20480;-76
2022/01/25 14:26:32;;;;;;;67.57;31.60;;;4.20;99.90;;;;;;4937328;29;20489;-76
2022/01/25 14:29:11;;;;;;;70.50;31.87;;;3.90;99.90;;;;;;4936974;29;20489;-76
2022/01/25 14:31:42;;;;;;;70.60;34.30;;;3.70;99.90;;;;;;4936944;29;20477;-76
2022/01/25 14:34:12;;;;;;;73.90;32.90;;;3.50;99.90;;;;;;4936773;29;20509;-76
2022/01/25 14:36:43;;;;;;;69.27;32.17;;;3.40;99.90;;;;;;4935818;29;20541;-75
2022/01/25 14:39:11;;;;;;;71.73;31.83;;;3.20;99.90;;;;;;4936558;29;20453;-76
2022/01/25 14:41:39;;;;;;;72.60;33.50;;;3.20;99.90;;;;;;4935711;29;20800;-75
2022/01/25 14:44:07;;;;;;;87.17;34.57;;;3.10;99.90;;;;;;4936310;29;20493;-76
2022/01/25 14:46:36;;;;;;;86.73;36.03;;;3.00;99.90;;;;;;4936528;29;20462;-77
2022/01/25 14:49:09;;;;;;;86.97;35.80;;;2.90;99.90;;;;;;4936474;29;20544;-75
2022/01/25 14:51:39;;;;;;;80.73;35.47;;;2.80;99.90;;;;;;4936591;29;20505;-76
2022/01/25 14:54:08;;;;;;;96.27;37.50;;;2.80;99.90;;;;;;4936715;29;20530;-76
2022/01/25 14:56:37;;;;;;;93.33;37.67;;;2.90;99.90;;;;;;4936569;29;20544;-75
2022/01/25 15:01:50;;;;;;;82.10;35.07;;;2.80;99.90;;;;;;4936414;29;20571;-75
2022/01/25 15:04:18;;;;;;;79.30;34.67;;;2.80;99.90;;;;;;4936754;29;20525;-77
2022/01/25 15:06:45;;;;;;;82.30;34.57;;;2.70;99.90;;;;;;4937853;29;20462;-74
2022/01/25 15:09:14;;;;;;;88.50;36.77;;;2.70;99.90;;;;;;4944281;29;20449;-75
2022/01/25 15:11:41;;;;;;;76.23;32.67;;;2.70;99.90;;;;;;4941914;29;20474;-75
2022/01/25 15:14:10;;;;;;;78.60;34.80;;;2.70;99.90;;;;;;4947250;29;20469;-75
2022/01/25 15:16:37;;;;;;;85.43;34.60;;;2.70;99.90;;;;;;4954994;29;20453;-75
2022/01/25 15:19:05;;;;;;;80.33;33.37;;;2.80;99.90;;;;;;4941040;29;20456;-74
2022/01/25 15:21:33;;;;;;;93.17;36.33;;;2.50;99.90;;;;;;4936440;29;20540;-75
2022/01/25 15:24:01;;;;;;;90.57;35.87;;;2.40;99.90;;;;;;4941318;29;20503;-75
2022/01/25 15:26:34;;;;;;;92.40;34.53;;;2.40;99.90;;;;;;4955386;29;20503;-77
2022/01/25 15:29:01;;;;;;;89.03;34.70;;;2.20;99.90;;;;;;4955030;29;20951;-77
2022/01/25 15:31:28;;;;;;;88.20;35.37;;;2.10;99.90;;;;;;4954985;29;20473;-76
2022/01/25 15:33:55;;;;;;;117.27;46.83;;;2.10;99.90;;;;;;4955794;29;20452;-78
2022/01/25 15:36:23;;;;;;;412.97;187.33;;;2.10;99.90;;;;;;4954887;29;20547;-75
2022/01/25 15:38:53;;;;;;;169.37;78.30;;;2.10;99.90;;;;;;4954450;29;20516;-75
2022/01/25 15:41:23;;;;;;;109.63;44.40;;;2.10;99.90;;;;;;4954870;29;20500;-75
2022/01/25 15:43:52;;;;;;;86.33;34.30;;;2.00;99.90;;;;;;4954764;29;20540;-75
2022/01/25 15:46:25;;;;;;;165.20;68.83;;;2.10;99.90;;;;;;4954614;29;20838;-75
2022/01/25 15:48:53;;;;;;;124.43;48.77;;;2.10;99.90;;;;;;4954443;28;20472;-75
2022/01/25 15:51:20;;;;;;;150.70;65.33;;;2.00;99.90;;;;;;4954277;29;20563;-75
2022/01/25 15:53:49;;;;;;;77.87;33.47;;;2.00;99.90;;;;;;4954595;29;20455;-75
2022/01/25 15:56:17;;;;;;;84.63;34.27;;;2.00;99.90;;;;;;4954572;29;20552;-75
2022/01/25 15:58:45;;;;;;;83.17;35.67;;;2.00;99.90;;;;;;4954602;29;20539;-75
2022/01/25 16:01:13;;;;;;;88.10;35.80;;;1.90;99.90;;;;;;4954182;29;20536;-75
2022/01/25 16:03:41;;;;;;;95.67;35.77;;;1.90;99.90;;;;;;4954049;29;20516;-75
2022/01/25 16:06:09;;;;;;;91.63;36.13;;;1.90;99.90;;;;;;4954517;29;20484;-75
2022/01/25 16:08:37;;;;;;;82.53;34.20;;;1.90;99.90;;;;;;4954427;29;20886;-75
2022/01/25 16:11:07;;;;;;;96.57;36.37;;;1.90;99.90;;;;;;4954152;29;20565;-75
2022/01/25 16:13:35;;;;;;;80.70;33.53;;;2.00;99.90;;;;;;4954365;29;20457;-75
2022/01/25 16:16:02;;;;;;;89.30;34.87;;;2.00;99.90;;;;;;4954179;29;20461;-75
2022/01/25 16:18:29;;;;;;;72.87;32.40;;;2.00;99.90;;;;;;4954283;29;20483;-75
2022/01/25 16:20:56;;;;;;;81.77;33.97;;;2.10;99.90;;;;;;4953963;29;20469;-75
2022/01/25 16:23:23;;;;;;;78.50;34.90;;;2.20;99.90;;;;;;4954003;29;20456;-75
2022/01/25 16:25:50;;;;;;;94.30;37.27;;;2.30;99.90;;;;;;4954130;29;20532;-75
2022/01/25 16:28:17;;;;;;;92.10;39.63;;;2.30;99.90;;;;;;4953916;29;20540;-75
2022/01/25 16:30:45;;;;;;;91.43;36.20;;;2.40;99.90;;;;;;4953521;29;20469;-76
2022/01/25 16:33:12;;;;;;;83.20;35.67;;;2.40;99.90;;;;;;4953943;29;20492;-75
2022/01/25 16:35:39;;;;;;;85.70;36.90;;;2.30;99.90;;;;;;4953785;29;20455;-75
2022/01/25 16:38:06;;;;;;;76.33;33.10;;;2.40;99.90;;;;;;4954057;29;20543;-75
2022/01/25 16:40:34;;;;;;;81.17;34.27;;;2.40;99.90;;;;;;4953351;29;20585;-76
2022/01/25 16:43:01;;;;;;;88.97;35.80;;;2.40;99.90;;;;;;4952945;29;20457;-77
2022/01/25 16:45:32;;;;;;;90.30;35.07;;;2.40;99.90;;;;;;4952463;29;20587;-77
2022/01/25 16:48:01;;;;;;;85.00;35.03;;;2.40;99.90;;;;;;4952824;29;20464;-77
2022/01/25 16:50:28;;;;;;;92.50;33.00;;;2.40;99.90;;;;;;4952657;29;20476;-77
2022/01/25 16:52:55;;;;;;;79.10;34.20;;;2.50;99.90;;;;;;4952892;29;20941;-77
2022/01/25 16:55:22;;;;;;;85.97;36.37;;;2.60;99.90;;;;;;4952619;29;20535;-77
2022/01/25 16:57:49;;;;;;;77.30;33.80;;;2.60;99.90;;;;;;4952504;29;20449;-77
2022/01/25 17:00:18;;;;;;;84.57;37.37;;;2.60;99.90;;;;;;4957195;28;20444;-77
2022/01/25 17:02:46;;;;;;;86.27;35.70;;;2.60;99.90;;;;;;4959091;29;20456;-78
2022/01/25 17:05:14;;;;;;;93.37;36.17;;;2.60;99.90;;;;;;4959129;29;21005;-77
2022/01/25 17:07:41;;;;;;;99.73;37.70;;;2.60;99.90;;;;;;4959333;29;20934;-77
2022/01/25 17:10:10;;;;;;;80.43;34.50;;;2.70;99.90;;;;;;4958701;28;20544;-77
2022/01/25 17:12:37;;;;;;;77.67;35.07;;;2.60;99.90;;;;;;4958927;28;20540;-77
2022/01/25 17:15:07;;;;;;;90.20;36.80;;;2.70;99.90;;;;;;4959421;28;20449;-77
2022/01/25 17:17:34;;;;;;;86.03;39.27;;;2.80;99.90;;;;;;4959883;29;20456;-78
2022/01/25 17:20:02;;;;;;;100.30;43.33;;;2.80;99.90;;;;;;4958852;29;20445;-77
2022/01/25 17:22:30;;;;;;;85.97;39.40;;;2.80;99.90;;;;;;4958830;29;20527;-78
2022/01/25 17:24:57;;;;;;;92.87;38.53;;;2.80;99.90;;;;;;4958581;28;20492;-77
2022/01/25 17:27:24;;;;;;;79.33;35.50;;;2.80;99.90;;;;;;4958685;28;20539;-77
2022/01/25 17:29:50;;;;;;;84.40;36.20;;;2.80;99.90;;;;;;4948391;29;20544;-77
2022/01/25 17:32:18;;;;;;;79.80;34.93;;;2.80;99.90;;;;;;4939875;29;20477;-77
2022/01/25 17:34:45;;;;;;;78.00;33.07;;;2.70;99.90;;;;;;4939824;29;20552;-76
2022/01/25 17:37:12;;;;;;;83.17;33.87;;;2.70;99.90;;;;;;4939776;29;20536;-77
2022/01/25 17:39:40;;;;;;;83.50;37.43;;;2.60;99.90;;;;;;4939304;29;20536;-77
2022/01/25 17:42:08;;;;;;;76.40;33.80;;;2.60;99.90;;;;;;4939730;29;20566;-77
2022/01/25 17:44:34;;;;;;;86.40;35.23;;;2.50;99.90;;;;;;4939672;29;20493;-77
2022/01/25 17:47:01;;;;;;;76.67;32.80;;;2.50;99.90;;;;;;4939510;29;20496;-77
2022/01/25 17:49:29;;;;;;;78.37;35.00;;;2.50;99.90;;;;;;4939292;29;21029;-77
2022/01/25 17:51:57;;;;;;;83.70;36.60;;;2.50;99.90;;;;;;4939534;29;20486;-77
2022/01/25 17:54:24;;;;;;;76.20;31.50;;;2.50;99.90;;;;;;4939827;29;20513;-77
2022/01/25 17:56:53;;;;;;;70.53;32.30;;;2.50;99.90;;;;;;4939672;29;20883;-77
2022/01/25 17:59:20;;;;;;;77.30;34.13;;;2.50;99.90;;;;;;4939285;29;20460;-77
2022/01/25 18:01:49;;;;;;;76.97;33.80;;;2.50;99.90;;;;;;4939445;29;20489;-77
2022/01/25 18:04:17;;;;;;;74.80;32.77;;;2.60;99.90;;;;;;4939514;29;20548;-77
2022/01/25 18:06:44;;;;;;;80.67;34.90;;;2.60;99.90;;;;;;4939385;29;20457;-77
2022/01/25 18:09:11;;;;;;;79.60;32.87;;;2.60;99.90;;;;;;4939397;29;20461;-77
2022/01/25 18:11:41;;;;;;;71.30;30.83;;;2.50;99.90;;;;;;4937016;29;20492;-77
2022/01/25 18:14:11;;;;;;;71.33;32.90;;;2.30;99.90;;;;;;4936450;29;20585;-77